Latest Weather Observations for Swanbourne

IDW60901

Issued at 7:51 pm WST Monday 6 July 2020 (issued every 10 minutes, with the page automatically refreshed every 10 minutes)

About weather observations | Map of Perth area stations | Latest observations for Perth area | Other Formats
Station Details ID: 009215 Name: SWANBOURNE Lat: -31.96 Lon: 115.76 Height: 40.96 m
Data from the previous 72 hours. | See also: Recent months at Swanbourne
Date/Time
WST
Temp
°C
App
Temp
°C
Dew
Point
°C
Rel
Hum
%
Delta-T
°C
Wind Press
QNH
hPa
Press
MSL
hPa
Rain since
9am
mm
Dir  Spd
km/h
Gust
km/h
Spd
kts
Gust
kts
06/07:30pm 16.2 10.9 11.2 72 2.7 W 30 44 16 24 - - 5.6
06/07:00pm 15.9 10.4 11.7 76 2.3 W 32 44 17 24 - - 5.6
06/06:30pm 14.8 9.4 12.1 84 1.5 WNW 32 54 17 29 - - 5.6
06/06:00pm 15.7 10.2 12.5 81 1.8 WNW 33 54 18 29 - - 5.0
06/05:32pm 14.8 10.2 13.5 92 0.7 WNW 30 48 16 26 - - 5.0
06/05:30pm 14.8 9.6 13.3 91 0.8 WNW 33 48 18 26 - - 5.0
06/05:06pm 15.7 10.0 13.0 84 1.5 WNW 35 57 19 31 - - 3.4
06/05:00pm 14.9 9.5 12.8 87 1.2 WNW 33 48 18 26 - - 3.4
06/04:30pm 15.9 10.0 12.5 80 1.9 NW 35 50 19 27 - - 2.4
06/04:00pm 15.3 9.8 12.6 84 1.5 WNW 33 52 18 28 - - 1.8
06/03:30pm 15.7 10.4 13.0 84 1.5 NW 33 61 18 33 - - 1.8
06/03:15pm 16.8 10.4 12.1 74 2.6 NW 37 57 20 31 - - 1.8
06/03:00pm 17.0 11.1 12.3 74 2.6 NW 35 50 19 27 - - 1.8
06/02:48pm 17.3 12.9 13.0 76 2.4 WNW 28 48 15 26 - - 1.8
06/02:30pm 16.8 11.4 12.7 77 2.3 NW 33 50 18 27 - - 1.8
06/02:00pm 16.7 10.9 12.7 77 2.2 NW 35 48 19 26 - - 1.6
06/01:30pm 15.3 9.7 13.3 88 1.1 WNW 35 46 19 25 - - 1.6
06/01:10pm 16.0 10.3 12.9 82 1.7 WNW 35 57 19 31 - - 0.2
06/01:00pm 18.0 11.9 10.4 61 4.1 NW 33 54 18 29 - - 0.0
06/12:58pm 18.3 12.3 10.7 61 4.1 NW 33 54 18 29 - - 0.0
06/12:30pm 18.6 12.3 9.7 56 4.7 NW 33 48 18 26 - - 0.0
06/12:02pm 18.1 11.5 11.2 64 3.8 NW 37 57 20 31 - - 0.0
06/12:00pm 18.0 11.3 11.1 64 3.7 NW 37 52 20 28 - - 0.0
06/11:30am 18.4 12.5 11.2 63 3.9 NW 33 48 18 26 - - 0.0
06/11:00am 18.1 12.2 10.5 61 4.1 NW 32 46 17 25 - - 0.0
06/10:30am 18.2 11.8 10.6 61 4.1 NW 35 50 19 27 - - 0.0
06/10:00am 17.9 11.7 9.3 57 4.5 NW 32 52 17 28 - - 0.0
06/09:53am 17.8 11.4 9.2 57 4.5 NW 33 52 18 28 - - 0.0
06/09:30am 17.4 11.2 10.1 62 3.9 NW 33 50 18 27 - - 0.0
06/09:00am 17.2 11.1 10.6 65 3.5 NW 33 46 18 25 - - 2.0
06/08:30am 17.0 11.0 10.8 67 3.3 NW 33 50 18 27 - - 2.0
06/08:19am 16.9 10.4 10.5 66 3.4 NW 35 54 19 29 - - 2.0
06/08:00am 16.9 10.5 10.7 67 3.3 NW 35 50 19 27 - - 2.0
06/07:39am 16.7 11.1 11.4 71 2.9 NW 32 52 17 28 - - 2.0
06/07:30am 16.7 12.2 11.4 71 2.9 NW 26 37 14 20 - - 2.0
06/07:00am 16.2 13.2 12.6 79 2.0 NW 20 39 11 21 - - 2.0
06/06:30am 15.9 11.9 11.9 77 2.2 NW 24 37 13 20 - - 2.0
06/06:00am 14.3 11.5 12.5 89 1.0 NW 19 30 10 16 - - 2.0
06/05:45am 15.8 11.2 12.2 79 2.0 NW 28 48 15 26 - - 1.6
06/05:30am 16.0 12.6 11.4 74 2.5 NW 20 30 11 16 - - 1.6
06/05:00am 15.9 11.5 11.7 76 2.3 WNW 26 39 14 21 - - 1.6
06/04:30am 16.4 12.6 11.3 72 2.8 NW 22 30 12 16 - - 1.6
06/04:00am 16.4 12.7 11.6 73 2.6 NW 22 33 12 18 - - 1.6
06/03:30am 15.9 13.1 12.5 80 1.9 WNW 19 35 10 19 - - 1.6
06/03:00am 15.9 11.1 13.0 83 1.6 WNW 30 43 16 23 - - 1.6
06/02:30am 17.1 12.5 12.2 73 2.7 NW 28 37 15 20 - - 1.6
06/02:00am 16.7 12.3 11.8 73 2.7 NW 26 35 14 19 - - 1.6
06/01:30am 16.6 11.3 11.3 71 2.9 NW 30 43 16 23 - - 1.6
06/01:25am 16.3 11.8 12.5 78 2.1 NW 28 43 15 23 - - 1.6
06/01:00am 15.2 15.0 12.9 86 1.3 NNE 6 13 3 7 - - 1.6
06/12:30am 15.1 14.7 13.0 87 1.2 NE 7 13 4 7 - - 1.4
06/12:00am 16.2 15.6 12.4 78 2.1 N 7 11 4 6 - - 1.4
 
Date/Time
WST
Temp
°C
App
Temp
°C
Dew
Point
°C
Rel
Hum
%
Delta-T
°C
Wind Press
QNH
hPa
Press
MSL
hPa
Rain since
9am
mm
Dir  Spd
km/h
Gust
km/h
Spd
kts
Gust
kts
05/11:30pm 16.1 15.2 12.5 79 2.0 NNW 9 13 5 7 - - 1.4
05/11:00pm 16.2 15.5 12.0 76 2.3 NNW 7 11 4 6 - - 1.2
05/10:30pm 16.1 14.6 11.9 76 2.3 W 11 17 6 9 - - 1.2
05/10:00pm 16.5 13.7 13.2 81 1.8 WSW 20 33 11 18 - - 1.0
05/09:30pm 16.7 13.9 14.2 85 1.4 WSW 22 30 12 16 - - 1.0
05/09:00pm 16.8 14.6 14.8 88 1.2 WSW 20 32 11 17 - - 1.0
05/08:30pm 17.2 15.6 16.1 93 0.7 W 19 32 10 17 - - 1.0
05/08:00pm 16.9 15.1 14.4 85 1.4 N 17 28 9 15 - - 0.6
05/07:30pm 18.6 16.2 10.2 58 4.5 N 13 20 7 11 - - 0.0
05/07:00pm 19.2 16.8 8.8 51 5.4 NE 11 17 6 9 - - 0.0
05/06:30pm 19.7 17.1 7.8 46 6.1 NNE 11 19 6 10 - - 0.0
05/06:00pm 19.3 17.0 7.4 46 6.1 NE 9 11 5 6 - - 0.0
05/05:30pm 20.1 17.8 7.5 44 6.5 NE 9 15 5 8 - - 0.0
05/05:00pm 20.3 18.7 8.9 48 6.0 NE 7 11 4 6 - - 0.0
05/04:30pm 20.4 19.4 11.1 55 5.1 NNE 7 9 4 5 - - 0.0
05/04:00pm 20.6 19.9 12.1 58 4.8 NNW 7 13 4 7 - - 0.0
05/03:30pm 20.6 20.2 13.1 62 4.3 NNW 7 11 4 6 - - 0.0
05/03:00pm 21.2 19.4 10.7 51 5.8 NNW 11 17 6 9 - - 0.0
05/02:30pm 22.9 19.9 5.8 33 8.6 N 11 17 6 9 - - 0.0
05/02:00pm 22.4 19.4 6.2 35 8.2 NNE 11 19 6 10 - - 0.0
05/01:30pm 22.5 18.9 5.0 32 8.7 NNE 13 22 7 12 - - 0.0
05/01:00pm 22.4 18.4 4.9 32 8.7 NNE 15 24 8 13 - - 0.0
05/12:30pm 21.9 17.8 4.5 32 8.5 NNE 15 24 8 13 - - 0.0
05/12:00pm 20.8 16.6 4.0 33 8.1 NNE 15 22 8 12 - - 0.0
05/11:30am 20.7 17.6 5.5 37 7.5 NNE 11 19 6 10 - - 0.0
05/11:00am 20.1 16.4 4.2 35 7.7 NNE 13 24 7 13 - - 0.0
05/10:30am 19.5 16.2 4.4 37 7.3 NNE 11 22 6 12 - - 0.0
05/10:00am 18.9 15.6 4.7 39 6.8 NE 11 22 6 12 - - 0.0
05/09:30am 16.8 13.1 4.2 43 5.9 NE 13 24 7 13 - - 0.0
05/09:00am 16.3 12.1 3.7 43 5.8 NE 15 26 8 14 - - 0.0
05/08:30am 16.7 11.6 3.1 40 6.2 NE 19 33 10 18 - - 0.0
05/08:00am 15.7 11.0 3.2 43 5.7 NE 17 30 9 16 - - 0.0
05/07:30am 14.7 10.8 3.5 47 5.1 NE 13 26 7 14 - - 0.0
05/07:00am 14.8 9.7 3.3 46 5.2 NE 19 32 10 17 - - 0.0
05/06:30am 15.1 10.8 3.3 45 5.4 NE 15 24 8 13 - - 0.0
05/06:00am 14.4 9.8 3.5 48 4.9 NE 17 28 9 15 - - 0.0
05/05:30am 14.3 9.7 3.7 49 4.8 ENE 17 28 9 15 - - 0.0
05/05:00am 14.3 9.4 4.0 50 4.7 ENE 19 24 10 13 - - 0.0
05/04:30am 14.3 9.4 4.0 50 4.7 ENE 19 26 10 14 - - 0.0
05/04:00am 14.3 10.2 4.3 51 4.6 ENE 15 22 8 12 - - 0.0
05/03:30am 14.3 9.9 4.6 52 4.5 ENE 17 24 9 13 - - 0.0
05/03:00am 14.5 10.1 4.8 52 4.5 ENE 17 20 9 11 - - 0.0
05/02:30am 14.7 10.3 5.0 52 4.6 ENE 17 22 9 12 - - 0.0
05/02:00am 14.4 9.5 5.0 53 4.4 ENE 20 28 11 15 - - 0.0
05/01:30am 14.7 10.1 5.5 54 4.4 ENE 19 26 10 14 - - 0.0
05/01:00am 15.0 10.4 5.5 53 4.5 ENE 19 26 10 14 - - 0.0
05/12:30am 15.5 11.2 5.4 51 4.8 ENE 17 22 9 12 - - 0.0
05/12:00am 15.8 11.6 5.7 51 4.9 ENE 17 24 9 13 - - 0.0
 
Date/Time
WST
Temp
°C
App
Temp
°C
Dew
Point
°C
Rel
Hum
%
Delta-T
°C
Wind Press
QNH
hPa
Press
MSL
hPa
Rain since
9am
mm
Dir  Spd
km/h
Gust
km/h
Spd
kts
Gust
kts
04/11:30pm 15.2 10.8 6.5 56 4.2 ENE 19 28 10 15 - - 0.0
04/11:00pm 15.2 11.3 7.3 59 3.9 ENE 17 22 9 12 - - 0.0
04/10:30pm 14.9 11.1 7.7 62 3.6 ENE 17 22 9 12 - - 0.0
04/10:00pm 14.9 11.2 7.9 63 3.5 ENE 17 22 9 12 - - 0.0
04/09:30pm 14.8 11.1 7.8 63 3.5 ENE 17 22 9 12 - - 0.0
04/09:00pm 15.0 11.6 7.8 62 3.6 E 15 19 8 10 - - 0.0
04/08:30pm 15.5 12.1 7.8 60 3.9 E 15 20 8 11 - - 0.0
04/08:00pm 16.5 13.6 8.0 57 4.3 ENE 13 20 7 11 - - 0.0
04/07:30pm 17.3 13.7 8.2 55 4.6 ENE 17 22 9 12 - - 0.0
04/07:00pm 17.8 14.1 8.1 53 5.0 ENE 17 24 9 13 - - 0.0
04/06:30pm 18.1 14.4 8.1 52 5.1 ENE 17 24 9 13 - - 0.0
04/06:00pm 17.8 15.6 7.8 52 5.1 E 9 15 5 8 - - 0.0
04/05:30pm 19.0 17.4 7.8 48 5.7 ENE 6 9 3 5 - - 0.0
04/05:00pm 20.4 18.2 7.7 44 6.6 ENE 9 15 5 8 - - 0.0
04/04:30pm 21.5 18.8 7.3 40 7.3 NE 11 17 6 9 - - 0.0
04/04:00pm 22.1 19.3 7.1 38 7.7 NE 11 19 6 10 - - 0.0
04/03:30pm 21.6 19.2 7.1 39 7.5 NE 9 15 5 8 - - 0.0
04/03:00pm 21.8 19.8 7.2 39 7.5 NNE 7 11 4 6 - - 0.0
04/02:30pm 22.2 19.8 7.2 38 7.8 NE 9 17 5 9 - - 0.0
04/02:00pm 21.6 18.7 6.3 37 7.7 NE 11 19 6 10 - - 0.0
04/01:30pm 21.6 18.3 6.3 37 7.7 NE 13 22 7 12 - - 0.0
04/01:00pm 21.7 18.0 6.4 37 7.8 NE 15 26 8 14 - - 0.0
04/12:30pm 20.9 17.2 6.4 39 7.3 NE 15 24 8 13 - - 0.0
04/12:00pm 20.6 16.9 6.2 39 7.2 NE 15 30 8 16 - - 0.0
04/11:30am 19.4 15.2 5.5 40 6.8 NNE 17 30 9 16 - - 0.0
04/11:00am 18.8 14.4 4.9 40 6.7 NNE 17 26 9 14 - - 0.0
04/10:30am 17.9 13.3 5.5 44 6.0 NE 19 32 10 17 - - 0.0
04/10:00am 17.0 11.7 5.0 45 5.7 NE 22 39 12 21 - - 0.0
04/09:30am 16.5 11.6 5.2 47 5.4 NE 20 33 11 18 - - 0.0
04/09:00am 15.0 9.6 4.7 50 4.8 ENE 22 35 12 19 - - 0.0
04/08:30am 14.0 9.2 4.6 53 4.4 ENE 19 30 10 16 - - 0.0
04/08:00am 12.8 8.7 4.5 57 3.8 ENE 15 24 8 13 - - 0.0
04/07:30am 12.5 7.5 4.5 58 3.7 ENE 20 32 11 17 - - 0.0
04/07:00am 12.5 7.7 4.5 58 3.7 ENE 19 32 10 17 - - 0.0
04/06:30am 12.7 8.3 4.7 58 3.7 ENE 17 26 9 14 - - 0.0
04/06:00am 13.0 8.5 4.4 56 3.9 ENE 17 28 9 15 - - 0.0
04/05:30am 13.2 8.8 4.6 56 4.0 ENE 17 24 9 13 - - 0.0
04/05:00am 13.6 9.2 4.5 54 4.2 ENE 17 26 9 14 - - 0.0
04/04:30am 14.1 9.1 4.7 53 4.4 ENE 20 33 11 18 - - 0.0
04/04:00am 14.5 8.7 4.5 51 4.6 ENE 24 39 13 21 - - 0.0
04/03:30am 14.7 9.3 4.7 51 4.7 ENE 22 35 12 19 - - 0.0
04/03:00am 14.9 10.0 4.9 51 4.7 ENE 20 33 11 18 - - 0.0
04/02:30am 15.3 10.0 5.0 50 4.9 ENE 22 37 12 20 - - 0.0
04/02:00am 15.4 9.7 5.0 50 4.9 ENE 24 39 13 21 - - 0.0
04/01:30am 15.0 9.4 5.2 52 4.6 ENE 24 37 13 20 - - 0.0
04/01:00am 14.9 9.4 5.7 54 4.4 ENE 24 37 13 20 - - 0.0
04/12:30am 14.4 9.8 6.3 58 3.9 ENE 20 28 11 15 - - 0.0
04/12:00am 14.5 9.9 6.3 58 4.0 ENE 20 28 11 15 - - 0.0
 
Date/Time
WST
Temp
°C
App
Temp
°C
Dew
Point
°C
Rel
Hum
%
Delta-T
°C
Wind Press
QNH
hPa
Press
MSL
hPa
Rain since
9am
mm
Dir  Spd
km/h
Gust
km/h
Spd
kts
Gust
kts
03/11:30pm 14.4 10.4 6.7 60 3.7 ENE 17 26 9 14 - - 0.0
03/11:00pm 14.4 10.1 7.0 61 3.6 ENE 19 26 10 14 - - 0.0
03/10:30pm 14.0 10.5 7.1 63 3.4 E 15 24 8 13 - - 0.0
03/10:00pm 14.1 11.0 7.4 64 3.3 E 13 20 7 11 - - 0.0
03/09:30pm 14.1 10.7 7.6 65 3.2 E 15 20 8 11 - - 0.0
03/09:00pm 13.9 11.3 7.9 67 3.0 E 11 17 6 9 - - 0.0
03/08:30pm 14.1 11.2 8.1 67 3.0 E 13 19 7 10 - - 0.0
03/08:00pm 14.8 11.9 8.3 65 3.3 E 13 20 7 11 - - 0.0

Latest Capital City Observations: Canberra | Sydney | Melbourne | Brisbane | Adelaide | Perth | Hobart | Darwin

Other formats

Comma delimited format used in spreadsheet applications
http://www.bom.gov.au/fwo/IDW60901/IDW60901.94614.axf

JavaScript Object Notation format (JSON) in row-major order
http://www.bom.gov.au/fwo/IDW60901/IDW60901.94614.json

Data quality

Most of these data are generated automatically and are frequently updated. Quality checks on data are not normally performed. It is possible for incorrect values to appear. Refer to information at About Latest Weather Observations and please check the disclaimer before using these data.